Bennion, Utah
Current Conditions -  °F | °C
As of 7:53 PM on Friday 19 Dec 2014 (Local Time) from KSLC Reporting Station
Overcast Overcast  
Wind Chill: 37°   Ceiling: 9500
Heat Index: 41°   Visibility: 10mi
Dew Point: 26°   Wind: 6mph
Humidity: 55%   Direction: 330°NNW
Pressure: 30.12"   Gusts: NA
Location:  40.6511°N, 112.018°W
Report Text: KSLC 200253Z 33005KT 10SM FEW075 OVC095 05/M03 A3012 RMK AO2 SLP202 T00501033 53008
Loading
Personal Weather Stations






























Interactive Weather Map New forecast layout! Learn more

10-Day Weather Forecast

Advertisements
Track Severe Weather on mobile